createdAt,value
2022-08-05T00:02:21.935Z,53.83
2022-08-05T00:04:55.551Z,57.04
2022-08-05T00:08:00.620Z,56.69
2022-08-05T00:10:09.929Z,56.46
2022-08-05T00:12:55.833Z,58.53
2022-08-05T00:15:55.799Z,57.96
2022-08-05T00:18:09.621Z,57.87
2022-08-05T00:20:48.866Z,57.81
2022-08-05T00:23:15.581Z,56.78
2022-08-05T00:25:46.082Z,57.52
2022-08-05T00:28:13.535Z,56.52
2022-08-05T00:30:41.235Z,56.86
2022-08-05T00:34:42.490Z,56.66
2022-08-05T00:36:16.083Z,57.33
2022-08-05T00:38:44.297Z,55.37
2022-08-05T00:41:11.684Z,54.87
2022-08-05T00:43:46.688Z,54.16
2022-08-05T00:46:14.177Z,55.33
2022-08-05T00:48:51.306Z,54.02
2022-08-05T00:51:51.080Z,52.97
2022-08-05T00:54:05.757Z,52.29
2022-08-05T00:56:32.359Z,51.39
2022-08-05T00:59:00.359Z,51.45
2022-08-05T01:01:48.739Z,51.47
2022-08-05T01:04:15.769Z,51.11
2022-08-05T01:06:46.695Z,51.96
2022-08-05T01:09:15.217Z,52.04
2022-08-05T01:11:46.201Z,51.23
2022-08-05T01:14:16.615Z,51.44
2022-08-05T01:16:53.610Z,50.78
2022-08-05T01:19:36.534Z,51.17
2022-08-05T01:22:31.979Z,51.76
2022-08-05T01:25:40.375Z,51.42
2022-08-05T01:28:17.805Z,51.37
2022-08-05T01:30:59.558Z,51.32
2022-08-05T01:33:35.528Z,52.38
2022-08-05T01:36:07.184Z,52.26
2022-08-05T01:38:40.185Z,52.18
2022-08-05T01:41:07.988Z,52.32
2022-08-05T01:43:35.832Z,51.93
2022-08-05T01:46:07.283Z,51.57
2022-08-05T01:48:44.506Z,51.67
2022-08-05T01:51:12.148Z,52.71
2022-08-05T01:53:57.663Z,53.17
2022-08-05T01:58:13.192Z,51.90
2022-08-05T01:59:18.387Z,51.52
2022-08-05T02:01:47.232Z,51.26
2022-08-05T02:04:16.783Z,51.13
2022-08-05T02:06:45.133Z,51.55
2022-08-05T02:09:11.945Z,51.86
2022-08-05T02:12:03.678Z,51.20
2022-08-05T02:14:37.208Z,50.71
2022-08-05T02:17:17.057Z,50.79
2022-08-05T02:20:06.478Z,50.42
2022-08-05T02:22:42.456Z,51.27
2022-08-05T02:25:15.743Z,52.24
2022-08-05T02:27:58.345Z,50.50
2022-08-05T02:30:31.414Z,51.02
2022-08-05T02:33:02.759Z,52.00
2022-08-05T02:35:33.084Z,51.62
2022-08-05T02:38:04.543Z,51.49
2022-08-05T02:40:32.079Z,50.37
2022-08-05T02:42:59.509Z,50.92
2022-08-05T02:45:28.426Z,52.03
2022-08-05T02:48:06.555Z,51.39
2022-08-05T02:50:37.062Z,51.78
2022-08-05T02:53:04.670Z,52.01
2022-08-05T02:55:52.032Z,53.75
2022-08-05T02:58:22.244Z,52.86
2022-08-05T03:00:49.656Z,53.25
2022-08-05T03:03:20.448Z,53.63
2022-08-05T03:06:53.763Z,52.68
2022-08-05T03:08:39.090Z,52.26
2022-08-05T03:11:54.843Z,51.62
2022-08-05T03:14:13.521Z,51.95
2022-08-05T03:16:40.709Z,51.69
2022-08-05T03:19:17.448Z,51.88
2022-08-05T03:21:54.520Z,53.07
2022-08-05T03:24:29.379Z,54.24
2022-08-05T03:26:57.688Z,56.84
2022-08-05T03:29:24.416Z,58.62
2022-08-05T03:32:11.435Z,60.22
2022-08-05T03:34:38.630Z,60.18
2022-08-05T03:37:06.443Z,61.55
2022-08-05T03:39:38.141Z,62.09
2022-08-05T03:42:16.561Z,64.35
2022-08-05T03:44:43.089Z,65.92
2022-08-05T03:47:09.626Z,66.65
2022-08-05T03:49:52.001Z,68.78
2022-08-05T03:52:48.461Z,70.87
2022-08-05T03:56:00.919Z,71.13
2022-08-05T03:58:02.707Z,71.03
2022-08-05T04:00:32.183Z,70.84
2022-08-05T04:02:59.809Z,69.60
2022-08-05T04:05:33.883Z,70.29
2022-08-05T04:08:29.585Z,71.59
2022-08-05T04:10:53.564Z,72.11
2022-08-05T04:13:21.664Z,73.66
2022-08-05T04:16:03.084Z,73.90
2022-08-05T04:18:32.234Z,74.61
2022-08-05T04:21:01.746Z,73.68
2022-08-05T04:24:00.254Z,74.08
2022-08-05T04:26:17.657Z,74.47
2022-08-05T04:28:50.806Z,73.33
2022-08-05T04:31:18.013Z,73.18
2022-08-05T04:34:19.378Z,72.38
2022-08-05T04:36:46.122Z,73.51
2022-08-05T04:39:17.153Z,74.15
2022-08-05T04:41:44.844Z,75.18
2022-08-05T04:44:12.980Z,76.57
2022-08-05T04:46:39.743Z,77.47
2022-08-05T04:49:12.391Z,76.56
2022-08-05T04:51:43.939Z,76.00
2022-08-05T04:54:10.624Z,75.01
2022-08-05T04:56:39.173Z,73.80
2022-08-05T04:59:13.957Z,73.51
2022-08-05T05:02:08.160Z,74.24
2022-08-05T05:04:38.437Z,73.59
2022-08-05T05:07:11.963Z,72.79
2022-08-05T05:09:42.519Z,71.72
2022-08-05T05:12:11.532Z,71.72
2022-08-05T05:14:38.385Z,70.91
2022-08-05T05:17:22.790Z,70.18
2022-08-05T05:19:50.404Z,68.77
2022-08-05T05:22:24.101Z,67.86
2022-08-05T05:24:57.899Z,67.33
2022-08-05T05:27:41.236Z,66.34
2022-08-05T05:30:15.760Z,67.01
2022-08-05T05:33:00.826Z,65.46
2022-08-05T05:35:37.883Z,65.55
2022-08-05T05:38:06.427Z,65.25
2022-08-05T05:40:36.254Z,64.65
2022-08-05T05:43:03.168Z,64.59
2022-08-05T05:45:29.960Z,64.95
2022-08-05T05:48:05.415Z,64.59
2022-08-05T05:50:44.008Z,64.86
2022-08-05T05:53:21.600Z,64.98
2022-08-05T05:55:52.012Z,65.30
2022-08-05T05:58:31.881Z,64.54
2022-08-05T06:01:02.386Z,65.22
2022-08-05T06:03:53.775Z,64.63
2022-08-05T06:06:27.918Z,63.97
2022-08-05T06:08:57.425Z,63.09
2022-08-05T06:11:24.190Z,63.19
2022-08-05T06:13:54.249Z,62.51
2022-08-05T06:16:31.665Z,62.28
2022-08-05T06:19:01.187Z,61.37
2022-08-05T06:21:36.992Z,61.53
2022-08-05T06:24:12.090Z,61.31
2022-08-05T06:26:51.589Z,60.73
2022-08-05T06:29:23.847Z,60.75
2022-08-05T06:32:21.065Z,61.78
2022-08-05T06:34:53.505Z,61.35
2022-08-05T06:37:56.526Z,60.43
2022-08-05T06:40:07.783Z,60.14
2022-08-05T06:42:34.539Z,60.91
2022-08-05T06:45:05.517Z,61.16
2022-08-05T06:48:36.497Z,61.11
2022-08-05T06:50:22.458Z,59.40
2022-08-05T06:53:03.591Z,59.62
2022-08-05T06:55:36.726Z,59.70
2022-08-05T06:58:20.356Z,57.99
2022-08-05T07:00:50.739Z,57.49
2022-08-05T07:03:17.430Z,56.70
2022-08-05T07:05:46.382Z,56.26
2022-08-05T07:08:13.449Z,57.48
2022-08-05T07:10:52.217Z,58.29
2022-08-05T07:13:57.212Z,57.86
2022-08-05T07:17:56.590Z,57.84
2022-08-05T07:22:17.325Z,60.21
2022-08-05T07:24:52.696Z,59.40
2022-08-05T07:27:20.261Z,59.51
2022-08-05T07:30:25.575Z,60.69
2022-08-05T07:32:38.692Z,61.59
2022-08-05T07:35:56.037Z,61.59
2022-08-05T07:37:56.489Z,62.05
2022-08-05T07:40:31.947Z,62.40
2022-08-05T07:42:59.793Z,62.64
2022-08-05T07:45:56.460Z,64.43
2022-08-05T07:49:02.709Z,63.80
2022-08-05T07:51:23.014Z,64.88
2022-08-05T07:53:52.404Z,66.26
2022-08-05T07:57:00.587Z,64.74
2022-08-05T07:59:08.532Z,64.26
2022-08-05T08:01:35.428Z,65.76
2022-08-05T08:04:08.321Z,64.43
2022-08-05T08:06:34.866Z,64.25
2022-08-05T08:09:01.874Z,63.31
2022-08-05T08:11:47.617Z,62.56
2022-08-05T08:14:18.262Z,61.98
2022-08-05T08:16:50.986Z,61.96
2022-08-05T08:20:10.699Z,60.98
2022-08-05T08:22:09.082Z,61.87
2022-08-05T08:24:51.911Z,60.86
2022-08-05T08:27:18.723Z,59.34
2022-08-05T08:30:05.305Z,59.74
2022-08-05T08:32:34.475Z,59.44
2022-08-05T08:35:07.648Z,58.93
2022-08-05T08:37:40.309Z,58.46
2022-08-05T08:40:12.097Z,58.84
2022-08-05T08:42:50.983Z,58.60
2022-08-05T08:45:26.540Z,58.88
2022-08-05T08:48:10.547Z,58.00
2022-08-05T08:51:22.090Z,57.57
2022-08-05T08:53:36.054Z,57.30
2022-08-05T08:56:06.037Z,57.97
2022-08-05T08:58:43.081Z,57.64
2022-08-05T09:01:17.200Z,57.37
2022-08-05T09:03:54.540Z,56.72
2022-08-05T09:06:24.169Z,56.82
2022-08-05T09:08:55.491Z,59.83
2022-08-05T09:11:53.444Z,59.02
2022-08-05T09:14:54.155Z,61.62
2022-08-05T09:16:55.487Z,60.65
2022-08-05T09:19:28.058Z,60.03
2022-08-05T09:22:23.520Z,60.39
2022-08-05T09:25:01.119Z,60.15
2022-08-05T09:28:04.670Z,60.70
2022-08-05T09:30:23.542Z,61.23
2022-08-05T09:32:51.403Z,61.23
2022-08-05T09:35:27.231Z,60.50
2022-08-05T09:38:16.907Z,60.72
2022-08-05T09:40:51.949Z,60.29
2022-08-05T09:43:41.915Z,59.95
2022-08-05T09:46:28.036Z,58.93
2022-08-05T09:49:08.105Z,57.39
2022-08-05T09:51:43.414Z,56.81
2022-08-05T09:54:11.419Z,57.43
2022-08-05T09:56:39.005Z,56.67
2022-08-05T09:59:17.208Z,55.08
2022-08-05T10:01:46.504Z,54.52
2022-08-05T10:04:16.222Z,53.22
2022-08-05T10:06:59.518Z,53.20
2022-08-05T10:09:29.872Z,52.63
2022-08-05T10:12:18.825Z,52.56
2022-08-05T10:15:13.862Z,52.12
2022-08-05T10:17:54.462Z,52.60
2022-08-05T10:20:23.800Z,51.42
2022-08-05T10:22:51.989Z,51.12
2022-08-05T10:25:19.710Z,50.20
2022-08-05T10:28:13.896Z,51.92
2022-08-05T10:31:20.588Z,51.80
2022-08-05T10:33:25.620Z,51.82
2022-08-05T10:35:59.239Z,50.67
2022-08-05T10:38:28.686Z,50.94
2022-08-05T10:41:45.191Z,50.87
2022-08-05T10:44:17.661Z,50.00
2022-08-05T10:46:50.565Z,50.77
2022-08-05T10:49:18.414Z,49.85
2022-08-05T10:52:00.244Z,50.05
2022-08-05T10:54:56.112Z,50.43
2022-08-05T10:57:29.453Z,49.46
2022-08-05T11:00:17.901Z,51.46
2022-08-05T11:03:25.730Z,51.95
2022-08-05T11:06:14.486Z,54.34
2022-08-05T11:09:10.297Z,55.22
2022-08-05T11:11:44.443Z,53.83
2022-08-05T11:15:01.569Z,53.06
2022-08-05T11:17:57.210Z,53.28
2022-08-05T11:20:32.927Z,51.95
2022-08-05T11:23:05.906Z,50.49
2022-08-05T11:26:05.176Z,49.81
2022-08-05T11:28:32.882Z,49.40
2022-08-05T11:31:06.333Z,48.23
2022-08-05T11:33:46.193Z,47.50
2022-08-05T11:36:33.987Z,47.49
2022-08-05T11:39:09.115Z,47.50
2022-08-05T11:42:02.031Z,45.99
2022-08-05T11:44:52.740Z,46.30
2022-08-05T11:47:15.265Z,45.63
2022-08-05T11:49:51.231Z,45.36
2022-08-05T11:52:29.511Z,45.62
2022-08-05T11:54:58.457Z,46.10
2022-08-05T11:57:30.651Z,45.37
2022-08-05T12:00:25.610Z,44.16
2022-08-05T12:02:56.613Z,43.08
2022-08-05T12:05:36.065Z,40.91
2022-08-05T12:08:09.926Z,38.96
2022-08-05T12:10:45.446Z,30.04
2022-08-05T12:13:27.747Z,28.53
2022-08-05T12:16:14.713Z,26.67
2022-08-05T12:18:49.049Z,27.04
2022-08-05T12:21:31.815Z,26.27
2022-08-05T12:24:07.576Z,26.75
2022-08-05T12:26:50.169Z,28.04
2022-08-05T12:29:22.853Z,30.10
2022-08-05T12:32:01.709Z,30.30
2022-08-05T12:34:32.180Z,32.63
2022-08-05T12:37:01.430Z,32.76
2022-08-05T12:39:37.510Z,34.84
2022-08-05T12:42:14.919Z,35.25
2022-08-05T12:44:42.997Z,36.63
2022-08-05T12:47:12.335Z,35.93
2022-08-05T12:50:03.753Z,34.50
2022-08-05T12:52:41.874Z,33.97
2022-08-05T12:55:22.224Z,34.10
2022-08-05T12:58:38.415Z,35.04
2022-08-05T13:02:00.105Z,34.37
2022-08-05T13:03:33.154Z,34.46
2022-08-05T13:06:01.593Z,34.99
2022-08-05T13:08:32.201Z,34.98
2022-08-05T13:11:02.338Z,36.59
2022-08-05T13:14:07.348Z,37.40
2022-08-05T13:16:17.331Z,37.88
2022-08-05T13:18:55.278Z,37.42
2022-08-05T13:21:27.810Z,37.96
2022-08-05T13:23:55.549Z,36.90
2022-08-05T13:26:29.955Z,35.54
2022-08-05T13:28:57.132Z,34.90
2022-08-05T13:32:04.847Z,37.39
2022-08-05T13:34:31.834Z,38.44
2022-08-05T13:37:00.197Z,37.51
2022-08-05T13:40:15.012Z,39.71
2022-08-05T13:42:14.784Z,39.89
2022-08-05T13:44:46.051Z,40.33
2022-08-05T13:47:34.864Z,39.87
2022-08-05T13:50:04.507Z,38.25
2022-08-05T13:52:35.253Z,35.92
2022-08-05T13:55:03.003Z,35.21
2022-08-05T13:57:48.558Z,34.43
2022-08-05T14:00:27.135Z,33.79
2022-08-05T14:02:58.490Z,34.69
2022-08-05T14:05:48.200Z,34.12
2022-08-05T14:08:21.188Z,34.17
2022-08-05T14:10:59.817Z,36.29
2022-08-05T14:13:30.009Z,34.86
2022-08-05T14:16:07.404Z,33.22
2022-08-05T14:18:37.938Z,33.07
2022-08-05T14:22:07.239Z,33.77
2022-08-05T14:23:51.549Z,33.62
2022-08-05T14:26:36.892Z,34.90
2022-08-05T14:29:05.280Z,36.83
2022-08-05T14:32:02.702Z,38.01
2022-08-05T14:34:30.436Z,37.45
2022-08-05T14:37:02.182Z,39.13
2022-08-05T14:39:28.940Z,39.37
2022-08-05T14:42:19.640Z,38.94
2022-08-05T14:44:45.883Z,38.12
2022-08-05T14:47:12.476Z,37.08
2022-08-05T14:49:58.877Z,36.87
2022-08-05T14:52:50.509Z,35.37
2022-08-05T14:55:15.409Z,35.53
2022-08-05T14:57:56.115Z,34.91
2022-08-05T15:00:28.050Z,35.41
2022-08-05T15:02:56.507Z,36.82
2022-08-05T15:05:29.861Z,36.52
2022-08-05T15:08:06.307Z,35.90
2022-08-05T15:10:39.002Z,34.70
2022-08-05T15:13:06.222Z,35.09
2022-08-05T15:15:54.198Z,34.46
2022-08-05T15:18:23.341Z,34.96
2022-08-05T15:20:50.006Z,34.36
2022-08-05T15:23:17.810Z,34.77
2022-08-05T15:25:52.321Z,35.00
2022-08-05T15:28:22.257Z,35.13
2022-08-05T15:30:54.071Z,34.99
2022-08-05T15:33:56.774Z,34.69
2022-08-05T15:36:16.824Z,35.57
2022-08-05T15:38:50.599Z,34.67
2022-08-05T15:41:57.398Z,35.10
2022-08-05T15:44:23.631Z,34.79
2022-08-05T15:46:50.684Z,35.53
2022-08-05T15:49:27.320Z,34.21
2022-08-05T15:52:13.108Z,34.57
2022-08-05T15:54:43.048Z,34.07
2022-08-05T15:57:09.831Z,32.43
2022-08-05T15:59:38.079Z,33.31
2022-08-05T16:02:09.302Z,32.62
2022-08-05T16:04:41.005Z,32.17
2022-08-05T16:07:10.709Z,31.42
2022-08-05T16:09:37.699Z,30.33
2022-08-05T16:12:08.857Z,29.30
2022-08-05T16:14:35.381Z,28.56
2022-08-05T16:17:02.041Z,28.77
2022-08-05T16:20:03.610Z,27.97
2022-08-05T16:22:16.243Z,27.50
2022-08-05T16:24:51.353Z,27.52
2022-08-05T16:27:18.831Z,28.03
2022-08-05T16:29:51.116Z,28.89
2022-08-05T16:32:21.732Z,28.52
2022-08-05T16:34:55.129Z,29.07
2022-08-05T16:38:02.871Z,29.57
2022-08-05T16:40:13.423Z,30.37
2022-08-05T16:42:51.917Z,29.62
2022-08-05T16:46:05.232Z,29.85
2022-08-05T16:48:05.154Z,29.86
2022-08-05T16:50:31.714Z,29.86
2022-08-05T16:53:12.065Z,29.23
2022-08-05T16:55:47.518Z,29.42
2022-08-05T16:58:14.515Z,29.06
2022-08-05T17:00:41.067Z,29.59
2022-08-05T17:03:09.208Z,29.16
2022-08-05T17:05:51.845Z,29.38
2022-08-05T17:08:35.920Z,29.79
2022-08-05T17:11:08.834Z,29.26
2022-08-05T17:13:42.142Z,29.01
2022-08-05T17:16:28.143Z,29.46
2022-08-05T17:18:55.542Z,29.18
2022-08-05T17:21:23.602Z,29.60
2022-08-05T17:24:04.569Z,29.90
2022-08-05T17:26:38.439Z,29.72
2022-08-05T17:29:09.822Z,29.91
2022-08-05T17:31:41.581Z,30.65
2022-08-05T17:34:29.812Z,30.67
2022-08-05T17:36:59.479Z,30.79
2022-08-05T17:39:34.039Z,31.49
2022-08-05T17:42:17.325Z,30.99
2022-08-05T17:44:50.237Z,31.60
2022-08-05T17:47:22.412Z,31.37
2022-08-05T17:50:03.523Z,30.91
2022-08-05T17:52:32.171Z,31.78
2022-08-05T17:54:59.070Z,31.49
2022-08-05T17:57:25.629Z,31.28
2022-08-05T18:00:04.782Z,31.01
2022-08-05T18:02:35.101Z,31.73
2022-08-05T18:05:06.282Z,31.74
2022-08-05T18:07:42.170Z,31.71
2022-08-05T18:10:11.466Z,32.01
2022-08-05T18:12:41.180Z,31.61
2022-08-05T18:15:08.781Z,31.81
2022-08-05T18:18:00.596Z,31.74
2022-08-05T18:20:29.669Z,32.25
2022-08-05T18:23:00.709Z,32.19
2022-08-05T18:25:35.816Z,31.86
2022-08-05T18:28:05.096Z,32.95
2022-08-05T18:30:33.178Z,32.54
2022-08-05T18:33:00.865Z,32.91
2022-08-05T18:36:00.043Z,33.37
2022-08-05T18:38:18.925Z,33.39
2022-08-05T18:41:58.475Z,33.49
2022-08-05T18:43:38.061Z,33.04
2022-08-05T18:46:09.869Z,34.37
2022-08-05T18:48:41.414Z,33.60
2022-08-05T18:52:05.610Z,34.50
2022-08-05T18:54:14.403Z,34.04
2022-08-05T18:56:50.777Z,34.24
2022-08-05T18:59:43.267Z,34.26
2022-08-05T19:02:11.500Z,34.08
2022-08-05T19:05:01.108Z,33.87
2022-08-05T19:07:30.224Z,34.27
2022-08-05T19:10:12.329Z,34.36
2022-08-05T19:12:38.950Z,34.34
2022-08-05T19:15:06.320Z,34.78
2022-08-05T19:18:08.198Z,34.47
2022-08-05T19:20:36.714Z,34.82
2022-08-05T19:23:03.399Z,34.81
2022-08-05T19:25:41.893Z,35.48
2022-08-05T19:28:10.291Z,35.18
2022-08-05T19:30:36.991Z,35.67
2022-08-05T19:33:04.625Z,35.43
2022-08-05T19:35:56.444Z,35.72
2022-08-05T19:38:24.447Z,35.44
2022-08-05T19:40:53.607Z,36.30
2022-08-05T19:44:04.956Z,36.71
2022-08-05T19:46:06.890Z,35.90
2022-08-05T19:48:53.596Z,36.46
2022-08-05T19:52:04.277Z,36.89
2022-08-05T19:54:25.428Z,37.11
2022-08-05T19:56:55.541Z,36.87
2022-08-05T20:00:02.128Z,36.52
2022-08-05T20:02:08.691Z,37.19
2022-08-05T20:04:38.052Z,36.45
2022-08-05T20:07:13.090Z,36.76
2022-08-05T20:09:54.935Z,36.65
2022-08-05T20:12:24.942Z,36.78
2022-08-05T20:14:53.009Z,36.50
2022-08-05T20:17:23.560Z,36.67
2022-08-05T20:19:52.741Z,36.59
2022-08-05T20:22:26.989Z,37.03
2022-08-05T20:24:55.306Z,36.63
2022-08-05T20:27:26.951Z,36.72
2022-08-05T20:29:58.427Z,37.10
2022-08-05T20:32:26.948Z,36.87
2022-08-05T20:34:54.111Z,37.02
2022-08-05T20:38:06.114Z,37.75
2022-08-05T20:40:08.364Z,38.19
2022-08-05T20:42:35.503Z,37.85
2022-08-05T20:45:02.727Z,38.16
2022-08-05T20:47:31.647Z,38.19
2022-08-05T20:49:59.681Z,38.38
2022-08-05T20:52:28.927Z,38.41
2022-08-05T20:55:55.623Z,38.49
2022-08-05T20:57:44.343Z,38.42
2022-08-05T21:00:20.863Z,38.66
2022-08-05T21:03:06.948Z,38.71
2022-08-05T21:05:41.949Z,38.76
2022-08-05T21:08:21.064Z,38.86
2022-08-05T21:10:53.582Z,39.28
2022-08-05T21:13:36.796Z,39.30
2022-08-05T21:16:07.128Z,39.30
2022-08-05T21:18:34.207Z,40.10
2022-08-05T21:21:02.491Z,39.90
2022-08-05T21:23:29.065Z,39.79
2022-08-05T21:26:04.134Z,40.04
2022-08-05T21:28:34.831Z,39.90
2022-08-05T21:31:03.818Z,40.20
2022-08-05T21:33:39.763Z,40.19
2022-08-05T21:36:06.853Z,40.30
2022-08-05T21:38:38.715Z,40.26
2022-08-05T21:41:07.746Z,40.33
2022-08-05T21:43:41.881Z,40.51
2022-08-05T21:46:08.642Z,40.96
2022-08-05T21:48:38.715Z,40.48
2022-08-05T21:52:16.225Z,40.74
2022-08-05T21:53:59.472Z,40.96
2022-08-05T21:56:30.752Z,40.64
2022-08-05T21:58:58.052Z,40.52
2022-08-05T22:01:25.749Z,40.87
2022-08-05T22:03:53.598Z,40.78
2022-08-05T22:06:22.783Z,41.36
2022-08-05T22:08:52.089Z,41.34
2022-08-05T22:11:34.932Z,42.29
2022-08-05T22:14:19.921Z,42.49
2022-08-05T22:16:51.926Z,42.57
2022-08-05T22:20:00.302Z,42.92
2022-08-05T22:22:07.311Z,42.25
2022-08-05T22:24:55.744Z,42.18
2022-08-05T22:28:08.326Z,41.93
2022-08-05T22:30:34.919Z,42.14
2022-08-05T22:33:02.027Z,41.87
2022-08-05T22:35:47.851Z,42.00
2022-08-05T22:38:15.274Z,41.82
2022-08-05T22:40:49.782Z,42.12
2022-08-05T22:43:37.155Z,41.88
2022-08-05T22:46:13.206Z,42.62
2022-08-05T22:48:47.547Z,42.78
2022-08-05T22:51:16.099Z,43.50
2022-08-05T22:53:50.972Z,43.17
2022-08-05T22:56:30.103Z,44.37
2022-08-05T22:58:59.878Z,44.27
2022-08-05T23:02:04.578Z,43.80
2022-08-05T23:04:16.596Z,43.44
2022-08-05T23:06:43.144Z,44.49
2022-08-05T23:09:14.619Z,44.69
2022-08-05T23:11:54.785Z,45.64
2022-08-05T23:14:22.683Z,44.79
2022-08-05T23:17:16.839Z,45.37
2022-08-05T23:19:58.466Z,45.18
2022-08-05T23:22:27.374Z,45.08
2022-08-05T23:24:54.893Z,45.17
2022-08-05T23:27:22.756Z,44.76
2022-08-05T23:29:50.755Z,45.08
2022-08-05T23:32:17.460Z,44.85
2022-08-05T23:34:49.797Z,45.35
2022-08-05T23:37:18.016Z,45.24
2022-08-05T23:39:54.271Z,45.15
2022-08-05T23:42:23.493Z,45.28
2022-08-05T23:44:56.321Z,46.21
2022-08-05T23:47:24.997Z,46.57
2022-08-05T23:49:52.110Z,46.62
2022-08-05T23:52:32.600Z,47.00
2022-08-05T23:55:09.055Z,46.72
2022-08-05T23:57:36.357Z,46.87
